McGill, Nevada
Current Conditions -  °F | °C
As of 7:53 AM on Thursday 30 Oct 2014 (Local Time) from KELY Reporting Station
Clear Clear  
Wind Chill: 21°   Ceiling: Unl
Heat Index: 30°   Visibility: 10mi
Dew Point: 16°   Wind: 12mph
Humidity: 56%   Direction: 170°S
Pressure: 30.3"   Gusts: NA
Location:  39.4°N, 114.78°W
Report Text: KELY 301453Z AUTO 17010KT 10SM CLR M01/M09 A3030 RMK AO2 SLP248 T10111089 55001
Loading
Personal Weather Stations






























Interactive Weather Map
Tropical Storm Tracking
New forecast layout! Learn more

10-Day Weather Forecast

Advertisements
Track Severe Weather on mobile